sensor_id;sensor_type;location;lat;lon;timestamp;pressure;altitude;pressure_sealevel;temperature;humidity
64292;BME280;50628;51.008;13.658;2024-03-23T00:56:43;98920.38;;;10.01;100.00
64292;BME280;50628;51.008;13.658;2024-03-23T01:01:45;98929.13;;;10.10;100.00
64292;BME280;50628;51.008;13.658;2024-03-23T01:06:49;98927.50;;;10.09;100.00
64292;BME280;50628;51.008;13.658;2024-03-23T01:11:50;98921.34;;;10.00;100.00
64292;BME280;50628;51.008;13.658;2024-03-23T01:16:52;98904.28;;;9.88;100.00
64292;BME280;50628;51.008;13.658;2024-03-23T01:21:56;98891.72;;;9.73;100.00
64292;BME280;50628;51.008;13.658;2024-03-23T01:26:57;98899.78;;;9.51;100.00
64292;BME280;50628;51.008;13.658;2024-03-23T01:31:59;98902.53;;;9.30;100.00
64292;BME280;50628;51.008;13.658;2024-03-23T01:37:03;98891.19;;;9.31;100.00
64292;BME280;50628;51.008;13.658;2024-03-23T01:42:05;98886.41;;;9.36;100.00
64292;BME280;50628;51.008;13.658;2024-03-23T01:47:07;98888.72;;;9.39;100.00
64292;BME280;50628;51.008;13.658;2024-03-23T01:52:11;98878.72;;;9.35;100.00
64292;BME280;50628;51.008;13.658;2024-03-23T01:57:13;98862.06;;;9.37;100.00
64292;BME280;50628;51.008;13.658;2024-03-23T02:02:15;98855.91;;;9.09;100.00
64292;BME280;50628;51.008;13.658;2024-03-23T02:07:19;98858.41;;;9.30;100.00
64292;BME280;50628;51.008;13.658;2024-03-23T02:12:21;98839.94;;;9.14;100.00
64292;BME280;50628;51.008;13.658;2024-03-23T02:17:23;98834.31;;;8.99;100.00
64292;BME280;50628;51.008;13.658;2024-03-23T02:22:35;98836.09;;;8.88;100.00
64292;BME280;50628;51.008;13.658;2024-03-23T02:27:38;98825.97;;;9.15;100.00
64292;BME280;50628;51.008;13.658;2024-03-23T02:32:40;98812.22;;;8.95;100.00
64292;BME280;50628;51.008;13.658;2024-03-23T02:37:42;98816.16;;;8.70;100.00
64292;BME280;50628;51.008;13.658;2024-03-23T02:42:45;98820.22;;;8.82;100.00
64292;BME280;50628;51.008;13.658;2024-03-23T02:47:47;98805.38;;;8.94;100.00
64292;BME280;50628;51.008;13.658;2024-03-23T02:52:52;98801.41;;;8.90;100.00
64292;BME280;50628;51.008;13.658;2024-03-23T02:57:55;98804.94;;;8.88;100.00
64292;BME280;50628;51.008;13.658;2024-03-23T03:03:02;98791.28;;;8.96;100.00
64292;BME280;50628;51.008;13.658;2024-03-23T03:08:05;98777.38;;;8.87;100.00
64292;BME280;50628;51.008;13.658;2024-03-23T03:13:08;98747.88;;;8.98;100.00
64292;BME280;50628;51.008;13.658;2024-03-23T03:18:10;98757.03;;;8.93;100.00
64292;BME280;50628;51.008;13.658;2024-03-23T03:23:12;98760.31;;;8.75;100.00
64292;BME280;50628;51.008;13.658;2024-03-23T03:28:15;98757.97;;;8.92;100.00
64292;BME280;50628;51.008;13.658;2024-03-23T03:33:17;98755.38;;;8.92;100.00
64292;BME280;50628;51.008;13.658;2024-03-23T03:38:19;98748.97;;;8.96;100.00
64292;BME280;50628;51.008;13.658;2024-03-23T03:43:22;98752.50;;;9.04;100.00
64292;BME280;50628;51.008;13.658;2024-03-23T03:48:24;98738.16;;;9.00;100.00
64292;BME280;50628;51.008;13.658;2024-03-23T03:53:26;98720.56;;;8.84;100.00
64292;BME280;50628;51.008;13.658;2024-03-23T03:58:29;98719.72;;;8.74;100.00
64292;BME280;50628;51.008;13.658;2024-03-23T04:03:31;98725.22;;;8.52;100.00
64292;BME280;50628;51.008;13.658;2024-03-23T04:08:32;98708.81;;;8.71;100.00
64292;BME280;50628;51.008;13.658;2024-03-23T04:13:36;98700.50;;;8.67;100.00
64292;BME280;50628;51.008;13.658;2024-03-23T04:18:37;98685.19;;;8.64;100.00
64292;BME280;50628;51.008;13.658;2024-03-23T04:23:39;98691.91;;;8.57;100.00
64292;BME280;50628;51.008;13.658;2024-03-23T04:28:42;98672.78;;;8.58;100.00
64292;BME280;50628;51.008;13.658;2024-03-23T04:33:44;98663.91;;;8.51;100.00
64292;BME280;50628;51.008;13.658;2024-03-23T04:38:46;98656.50;;;8.36;100.00
64292;BME280;50628;51.008;13.658;2024-03-23T04:43:52;98648.47;;;8.30;100.00
64292;BME280;50628;51.008;13.658;2024-03-23T04:48:53;98650.91;;;8.12;100.00
64292;BME280;50628;51.008;13.658;2024-03-23T04:53:57;98620.63;;;8.12;100.00
64292;BME280;50628;51.008;13.658;2024-03-23T04:59:00;98603.69;;;7.98;100.00
64292;BME280;50628;51.008;13.658;2024-03-23T05:04:05;98593.88;;;7.92;100.00
64292;BME280;50628;51.008;13.658;2024-03-23T05:09:07;98592.75;;;7.85;100.00
64292;BME280;50628;51.008;13.658;2024-03-23T05:14:13;98585.13;;;7.84;100.00
64292;BME280;50628;51.008;13.658;2024-03-23T05:19:15;98582.00;;;7.90;100.00
64292;BME280;50628;51.008;13.658;2024-03-23T05:24:17;98562.50;;;7.95;100.00
64292;BME280;50628;51.008;13.658;2024-03-23T05:29:20;98551.44;;;7.93;100.00
64292;BME280;50628;51.008;13.658;2024-03-23T05:34:22;98558.28;;;8.04;100.00
64292;BME280;50628;51.008;13.658;2024-03-23T05:39:24;98541.09;;;8.13;100.00
64292;BME280;50628;51.008;13.658;2024-03-23T05:44:27;98542.06;;;8.21;100.00
64292;BME280;50628;51.008;13.658;2024-03-23T05:49:29;98547.50;;;8.28;100.00
64292;BME280;50628;51.008;13.658;2024-03-23T05:54:31;98526.47;;;8.31;100.00
64292;BME280;50628;51.008;13.658;2024-03-23T05:59:34;98510.38;;;8.47;100.00
64292;BME280;50628;51.008;13.658;2024-03-23T06:04:36;98493.56;;;8.51;100.00
64292;BME280;50628;51.008;13.658;2024-03-23T06:09:38;98487.19;;;8.45;100.00
64292;BME280;50628;51.008;13.658;2024-03-23T06:14:41;98468.88;;;8.57;100.00
64292;BME280;50628;51.008;13.658;2024-03-23T06:19:43;98464.81;;;8.44;100.00
64292;BME280;50628;51.008;13.658;2024-03-23T06:24:45;98461.13;;;8.47;100.00
64292;BME280;50628;51.008;13.658;2024-03-23T06:29:48;98437.47;;;8.50;100.00
64292;BME280;50628;51.008;13.658;2024-03-23T06:34:50;98418.66;;;8.48;100.00
64292;BME280;50628;51.008;13.658;2024-03-23T06:39:52;98410.97;;;8.56;100.00
64292;BME280;50628;51.008;13.658;2024-03-23T06:44:55;98404.81;;;8.67;100.00
64292;BME280;50628;51.008;13.658;2024-03-23T06:49:57;98401.16;;;8.60;100.00
64292;BME280;50628;51.008;13.658;2024-03-23T06:54:59;98391.97;;;8.65;100.00
64292;BME280;50628;51.008;13.658;2024-03-23T07:00:03;98398.94;;;8.65;100.00
64292;BME280;50628;51.008;13.658;2024-03-23T07:05:06;98392.63;;;8.68;100.00
64292;BME280;50628;51.008;13.658;2024-03-23T07:10:08;98401.28;;;8.58;100.00
64292;BME280;50628;51.008;13.658;2024-03-23T07:15:11;98393.19;;;8.61;100.00
64292;BME280;50628;51.008;13.658;2024-03-23T07:20:13;98354.97;;;8.63;100.00
64292;BME280;50628;51.008;13.658;2024-03-23T07:25:15;98339.31;;;8.83;100.00
64292;BME280;50628;51.008;13.658;2024-03-23T07:30:18;98349.06;;;8.89;100.00
64292;BME280;50628;51.008;13.658;2024-03-23T07:35:20;98329.81;;;8.92;100.00
64292;BME280;50628;51.008;13.658;2024-03-23T07:40:22;98319.53;;;9.00;100.00
64292;BME280;50628;51.008;13.658;2024-03-23T07:45:25;98312.09;;;9.05;100.00
64292;BME280;50628;51.008;13.658;2024-03-23T07:50:27;98310.16;;;9.25;100.00
64292;BME280;50628;51.008;13.658;2024-03-23T07:55:29;98288.28;;;9.27;100.00
64292;BME280;50628;51.008;13.658;2024-03-23T08:00:33;98277.53;;;9.22;100.00
64292;BME280;50628;51.008;13.658;2024-03-23T08:05:34;98268.94;;;9.04;100.00
64292;BME280;50628;51.008;13.658;2024-03-23T08:10:36;98261.13;;;9.22;100.00
64292;BME280;50628;51.008;13.658;2024-03-23T08:15:40;98254.84;;;9.06;100.00
64292;BME280;50628;51.008;13.658;2024-03-23T08:20:42;98238.97;;;9.09;100.00
64292;BME280;50628;51.008;13.658;2024-03-23T08:25:43;98228.97;;;9.41;100.00
64292;BME280;50628;51.008;13.658;2024-03-23T08:30:47;98209.19;;;9.82;100.00
64292;BME280;50628;51.008;13.658;2024-03-23T08:35:54;98201.28;;;9.92;100.00
64292;BME280;50628;51.008;13.658;2024-03-23T08:40:57;98214.94;;;10.02;100.00
64292;BME280;50628;51.008;13.658;2024-03-23T08:46:05;98213.34;;;10.01;100.00
64292;BME280;50628;51.008;13.658;2024-03-23T08:51:08;98210.28;;;10.14;100.00
64292;BME280;50628;51.008;13.658;2024-03-23T08:56:11;98199.41;;;10.27;100.00
64292;BME280;50628;51.008;13.658;2024-03-23T09:01:14;98198.09;;;10.23;100.00
64292;BME280;50628;51.008;13.658;2024-03-23T09:06:16;98200.13;;;10.37;100.00
64292;BME280;50628;51.008;13.658;2024-03-23T09:11:18;98180.56;;;11.31;100.00
64292;BME280;50628;51.008;13.658;2024-03-23T09:16:21;98186.44;;;12.43;100.00
64292;BME280;50628;51.008;13.658;2024-03-23T09:21:23;98181.06;;;12.68;100.00
64292;BME280;50628;51.008;13.658;2024-03-23T09:26:25;98183.84;;;12.66;100.00
64292;BME280;50628;51.008;13.658;2024-03-23T09:31:28;98192.47;;;12.44;100.00
64292;BME280;50628;51.008;13.658;2024-03-23T09:36:31;98204.41;;;12.15;100.00
64292;BME280;50628;51.008;13.658;2024-03-23T09:41:33;98288.84;;;11.17;100.00
64292;BME280;50628;51.008;13.658;2024-03-23T09:46:37;98314.13;;;10.15;100.00
64292;BME280;50628;51.008;13.658;2024-03-23T09:51:39;98327.06;;;9.73;100.00
64292;BME280;50628;51.008;13.658;2024-03-23T09:56:42;98392.59;;;8.50;100.00
64292;BME280;50628;51.008;13.658;2024-03-23T10:01:45;98412.41;;;7.45;100.00
64292;BME280;50628;51.008;13.658;2024-03-23T10:06:47;98436.50;;;7.07;100.00
64292;BME280;50628;51.008;13.658;2024-03-23T10:11:49;98493.50;;;6.55;100.00
64292;BME280;50628;51.008;13.658;2024-03-23T10:16:52;98536.03;;;6.09;100.00
64292;BME280;50628;51.008;13.658;2024-03-23T10:21:56;98550.91;;;5.84;100.00
64292;BME280;50628;51.008;13.658;2024-03-23T10:26:58;98590.03;;;5.69;100.00
64292;BME280;50628;51.008;13.658;2024-03-23T10:32:19;98614.94;;;5.58;100.00
64292;BME280;50628;51.008;13.658;2024-03-23T10:37:21;98649.78;;;5.19;100.00
64292;BME280;50628;51.008;13.658;2024-03-23T10:42:23;98694.22;;;5.34;100.00
64292;BME280;50628;51.008;13.658;2024-03-23T10:47:26;98713.13;;;5.34;100.00
64292;BME280;50628;51.008;13.658;2024-03-23T10:52:36;98735.31;;;5.37;100.00
64292;BME280;50628;51.008;13.658;2024-03-23T10:57:42;98756.53;;;5.52;100.00
64292;BME280;50628;51.008;13.658;2024-03-23T11:02:47;98777.97;;;5.41;100.00
64292;BME280;50628;51.008;13.658;2024-03-23T11:07:50;98788.09;;;5.09;100.00
64292;BME280;50628;51.008;13.658;2024-03-23T11:12:52;98786.50;;;5.19;100.00
64292;BME280;50628;51.008;13.658;2024-03-23T11:18:06;98782.19;;;5.31;100.00
64292;BME280;50628;51.008;13.658;2024-03-23T11:23:26;98783.91;;;5.19;100.00
64292;BME280;50628;51.008;13.658;2024-03-23T11:28:29;98789.69;;;5.23;100.00
64292;BME280;50628;51.008;13.658;2024-03-23T11:33:33;98801.59;;;5.48;100.00
64292;BME280;50628;51.008;13.658;2024-03-23T11:38:36;98811.56;;;5.52;100.00
64292;BME280;50628;51.008;13.658;2024-03-23T11:43:38;98832.19;;;4.82;100.00
64292;BME280;50628;51.008;13.658;2024-03-23T11:48:49;98836.94;;;5.23;100.00
64292;BME280;50628;51.008;13.658;2024-03-23T11:53:51;98833.47;;;5.47;100.00
64292;BME280;50628;51.008;13.658;2024-03-23T11:58:54;98851.13;;;5.29;100.00
64292;BME280;50628;51.008;13.658;2024-03-23T12:03:57;98828.69;;;5.53;100.00
64292;BME280;50628;51.008;13.658;2024-03-23T12:09:05;98826.03;;;5.89;100.00
64292;BME280;50628;51.008;13.658;2024-03-23T12:14:08;98815.69;;;5.55;100.00
64292;BME280;50628;51.008;13.658;2024-03-23T12:19:11;98821.94;;;5.86;100.00
64292;BME280;50628;51.008;13.658;2024-03-23T12:24:13;98819.38;;;6.20;100.00
64292;BME280;50628;51.008;13.658;2024-03-23T12:29:15;98826.66;;;6.03;100.00
64292;BME280;50628;51.008;13.658;2024-03-23T12:34:19;98817.63;;;6.09;100.00
64292;BME280;50628;51.008;13.658;2024-03-23T12:39:21;98801.97;;;5.88;100.00
64292;BME280;50628;51.008;13.658;2024-03-23T12:44:23;98801.28;;;6.20;100.00
64292;BME280;50628;51.008;13.658;2024-03-23T12:49:26;98809.22;;;6.62;100.00
64292;BME280;50628;51.008;13.658;2024-03-23T12:54:29;98838.63;;;5.93;100.00
64292;BME280;50628;51.008;13.658;2024-03-23T12:59:32;98858.72;;;6.01;100.00
64292;BME280;50628;51.008;13.658;2024-03-23T13:04:37;98847.91;;;6.41;100.00
64292;BME280;50628;51.008;13.658;2024-03-23T13:09:39;98824.28;;;5.89;100.00
64292;BME280;50628;51.008;13.658;2024-03-23T13:14:41;98819.50;;;5.96;100.00
64292;BME280;50628;51.008;13.658;2024-03-23T13:19:44;98846.63;;;6.24;100.00
64292;BME280;50628;51.008;13.658;2024-03-23T13:24:46;98863.91;;;6.23;100.00
64292;BME280;50628;51.008;13.658;2024-03-23T13:29:48;98904.56;;;6.55;100.00
64292;BME280;50628;51.008;13.658;2024-03-23T13:34:52;98887.97;;;6.46;100.00
64292;BME280;50628;51.008;13.658;2024-03-23T13:39:54;98905.22;;;6.57;100.00
64292;BME280;50628;51.008;13.658;2024-03-23T13:44:56;98862.84;;;7.56;100.00
64292;BME280;50628;51.008;13.658;2024-03-23T13:49:59;98844.81;;;8.78;100.00
64292;BME280;50628;51.008;13.658;2024-03-23T13:55:01;98837.34;;;8.84;100.00
64292;BME280;50628;51.008;13.658;2024-03-23T14:00:03;98834.63;;;9.25;100.00
64292;BME280;50628;51.008;13.658;2024-03-23T14:05:15;98831.47;;;8.82;100.00
64292;BME280;50628;51.008;13.658;2024-03-23T14:10:16;98837.75;;;8.09;100.00
64292;BME280;50628;51.008;13.658;2024-03-23T14:15:18;98848.16;;;7.88;100.00
64292;BME280;50628;51.008;13.658;2024-03-23T14:20:22;98862.13;;;8.27;100.00
64292;BME280;50628;51.008;13.658;2024-03-23T14:25:24;98874.84;;;8.71;100.00
64292;BME280;50628;51.008;13.658;2024-03-23T14:30:29;98870.41;;;8.21;100.00
64292;BME280;50628;51.008;13.658;2024-03-23T14:35:34;98856.75;;;9.00;100.00
64292;BME280;50628;51.008;13.658;2024-03-23T14:40:36;98849.19;;;8.97;100.00
64292;BME280;50628;51.008;13.658;2024-03-23T14:51:07;98834.97;;;8.31;100.00
64292;BME280;50628;51.008;13.658;2024-03-23T14:56:09;98828.31;;;7.98;100.00
64292;BME280;50628;51.008;13.658;2024-03-23T15:01:13;98828.81;;;8.22;100.00
64292;BME280;50628;51.008;13.658;2024-03-23T15:06:16;98824.56;;;8.12;100.00
64292;BME280;50628;51.008;13.658;2024-03-23T15:11:18;98830.38;;;8.04;100.00
64292;BME280;50628;51.008;13.658;2024-03-23T15:16:20;98815.81;;;8.13;100.00
64292;BME280;50628;51.008;13.658;2024-03-23T15:21:23;98809.75;;;8.33;100.00
64292;BME280;50628;51.008;13.658;2024-03-23T15:26:25;98807.13;;;8.23;100.00
64292;BME280;50628;51.008;13.658;2024-03-23T15:31:27;98801.88;;;8.04;100.00
64292;BME280;50628;51.008;13.658;2024-03-23T15:36:31;98796.56;;;8.06;100.00
64292;BME280;50628;51.008;13.658;2024-03-23T15:41:33;98786.38;;;8.23;100.00
64292;BME280;50628;51.008;13.658;2024-03-23T15:46:36;98792.94;;;8.28;100.00
64292;BME280;50628;51.008;13.658;2024-03-23T15:51:39;98784.91;;;8.31;100.00
64292;BME280;50628;51.008;13.658;2024-03-23T15:56:43;98783.66;;;8.25;100.00
64292;BME280;50628;51.008;13.658;2024-03-23T16:01:44;98786.75;;;8.09;100.00
64292;BME280;50628;51.008;13.658;2024-03-23T16:06:48;98779.38;;;8.05;100.00
64292;BME280;50628;51.008;13.658;2024-03-23T16:11:49;98786.16;;;7.96;100.00
64292;BME280;50628;51.008;13.658;2024-03-23T16:16:51;98780.50;;;8.12;100.00
64292;BME280;50628;51.008;13.658;2024-03-23T16:21:54;98806.97;;;8.15;100.00
64292;BME280;50628;51.008;13.658;2024-03-23T16:26:56;98819.13;;;7.21;100.00
64292;BME280;50628;51.008;13.658;2024-03-23T16:31:58;98848.50;;;6.44;100.00
64292;BME280;50628;51.008;13.658;2024-03-23T16:37:02;98844.19;;;6.22;100.00
64292;BME280;50628;51.008;13.658;2024-03-23T16:42:04;98839.00;;;6.11;100.00
64292;BME280;50628;51.008;13.658;2024-03-23T16:47:06;98845.34;;;5.96;100.00
64292;BME280;50628;51.008;13.658;2024-03-23T16:52:10;98856.84;;;6.03;100.00
64292;BME280;50628;51.008;13.658;2024-03-23T16:57:12;98861.41;;;5.99;100.00
64292;BME280;50628;51.008;13.658;2024-03-23T17:02:14;98861.41;;;5.99;100.00
64292;BME280;50628;51.008;13.658;2024-03-23T17:07:17;98860.25;;;6.03;100.00
64292;BME280;50628;51.008;13.658;2024-03-23T17:12:19;98872.81;;;6.08;100.00
64292;BME280;50628;51.008;13.658;2024-03-23T17:17:20;98876.44;;;5.94;100.00
64292;BME280;50628;51.008;13.658;2024-03-23T17:22:24;98868.72;;;6.05;100.00
64292;BME280;50628;51.008;13.658;2024-03-23T17:27:25;98873.03;;;5.94;100.00
64292;BME280;50628;51.008;13.658;2024-03-23T17:32:27;98853.97;;;5.83;100.00
64292;BME280;50628;51.008;13.658;2024-03-23T17:37:31;98862.06;;;5.79;100.00
64292;BME280;50628;51.008;13.658;2024-03-23T17:42:33;98847.97;;;5.72;100.00
64292;BME280;50628;51.008;13.658;2024-03-23T17:47:35;98846.66;;;5.66;100.00
64292;BME280;50628;51.008;13.658;2024-03-23T17:52:42;98841.50;;;5.55;100.00
64292;BME280;50628;51.008;13.658;2024-03-23T17:57:44;98858.22;;;5.49;100.00
64292;BME280;50628;51.008;13.658;2024-03-23T18:02:48;98870.16;;;5.39;100.00
64292;BME280;50628;51.008;13.658;2024-03-23T18:07:51;98873.78;;;5.25;100.00
64292;BME280;50628;51.008;13.658;2024-03-23T18:12:53;98875.97;;;5.18;100.00
64292;BME280;50628;51.008;13.658;2024-03-23T18:17:55;98882.97;;;5.16;100.00
64292;BME280;50628;51.008;13.658;2024-03-23T18:22:58;98878.22;;;5.23;100.00
64292;BME280;50628;51.008;13.658;2024-03-23T18:28:00;98879.81;;;5.13;100.00
64292;BME280;50628;51.008;13.658;2024-03-23T18:33:02;98894.25;;;5.15;100.00
64292;BME280;50628;51.008;13.658;2024-03-23T18:38:06;98889.53;;;5.09;100.00
64292;BME280;50628;51.008;13.658;2024-03-23T18:43:07;98880.75;;;5.12;100.00
64292;BME280;50628;51.008;13.658;2024-03-23T18:48:09;98874.75;;;5.11;100.00
64292;BME280;50628;51.008;13.658;2024-03-23T18:53:13;98868.28;;;5.06;100.00
64292;BME280;50628;51.008;13.658;2024-03-23T18:58:14;98870.69;;;4.96;100.00
64292;BME280;50628;51.008;13.658;2024-03-23T19:03:16;98867.53;;;4.92;100.00
64292;BME280;50628;51.008;13.658;2024-03-23T19:08:20;98863.09;;;4.94;100.00
64292;BME280;50628;51.008;13.658;2024-03-23T19:13:22;98860.81;;;4.90;100.00
64292;BME280;50628;51.008;13.658;2024-03-23T19:18:24;98865.72;;;4.82;100.00
64292;BME280;50628;51.008;13.658;2024-03-23T19:23:28;98872.53;;;4.70;100.00
64292;BME280;50628;51.008;13.658;2024-03-23T19:28:30;98852.69;;;4.83;100.00
64292;BME280;50628;51.008;13.658;2024-03-23T19:33:32;98855.50;;;5.04;100.00
64292;BME280;50628;51.008;13.658;2024-03-23T19:38:35;98861.28;;;5.19;100.00
64292;BME280;50628;51.008;13.658;2024-03-23T19:43:37;98866.03;;;5.25;100.00
64292;BME280;50628;51.008;13.658;2024-03-23T19:48:39;98859.44;;;5.21;100.00
64292;BME280;50628;51.008;13.658;2024-03-23T19:53:42;98853.78;;;5.16;100.00
64292;BME280;50628;51.008;13.658;2024-03-23T19:58:44;98860.53;;;5.06;100.00
64292;BME280;50628;51.008;13.658;2024-03-23T20:03:47;98859.56;;;4.95;100.00
64292;BME280;50628;51.008;13.658;2024-03-23T20:08:51;98852.59;;;4.85;100.00
64292;BME280;50628;51.008;13.658;2024-03-23T20:13:53;98854.13;;;4.87;100.00
64292;BME280;50628;51.008;13.658;2024-03-23T20:18:56;98852.19;;;4.78;100.00
64292;BME280;50628;51.008;13.658;2024-03-23T20:24:00;98860.38;;;4.72;100.00
64292;BME280;50628;51.008;13.658;2024-03-23T20:29:02;98872.03;;;4.65;100.00
64292;BME280;50628;51.008;13.658;2024-03-23T20:34:04;98861.97;;;4.62;100.00
64292;BME280;50628;51.008;13.658;2024-03-23T20:39:08;98866.63;;;4.57;100.00
64292;BME280;50628;51.008;13.658;2024-03-23T20:44:10;98860.22;;;4.49;100.00
64292;BME280;50628;51.008;13.658;2024-03-23T20:49:12;98857.03;;;4.46;100.00
64292;BME280;50628;51.008;13.658;2024-03-23T20:54:15;98853.06;;;4.29;100.00
64292;BME280;50628;51.008;13.658;2024-03-23T20:59:17;98840.50;;;4.24;100.00
64292;BME280;50628;51.008;13.658;2024-03-23T21:04:19;98844.31;;;4.19;100.00
64292;BME280;50628;51.008;13.658;2024-03-23T21:09:22;98841.56;;;4.09;100.00
64292;BME280;50628;51.008;13.658;2024-03-23T21:14:24;98837.53;;;4.05;100.00
64292;BME280;50628;51.008;13.658;2024-03-23T21:19:26;98828.25;;;4.02;100.00
64292;BME280;50628;51.008;13.658;2024-03-23T21:24:30;98843.00;;;3.87;100.00
64292;BME280;50628;51.008;13.658;2024-03-23T21:29:32;98837.84;;;3.75;100.00
64292;BME280;50628;51.008;13.658;2024-03-23T21:34:33;98834.16;;;3.66;100.00
64292;BME280;50628;51.008;13.658;2024-03-23T21:39:37;98820.66;;;3.62;100.00
64292;BME280;50628;51.008;13.658;2024-03-23T21:44:39;98812.84;;;3.64;100.00
64292;BME280;50628;51.008;13.658;2024-03-23T21:49:41;98820.34;;;3.54;100.00
64292;BME280;50628;51.008;13.658;2024-03-23T21:54:44;98820.56;;;3.51;100.00
64292;BME280;50628;51.008;13.658;2024-03-23T21:59:46;98814.69;;;3.49;100.00
64292;BME280;50628;51.008;13.658;2024-03-23T22:04:48;98812.84;;;3.64;100.00
64292;BME280;50628;51.008;13.658;2024-03-23T22:09:51;98809.66;;;3.73;100.00
64292;BME280;50628;51.008;13.658;2024-03-23T22:14:53;98815.63;;;3.74;100.00
64292;BME280;50628;51.008;13.658;2024-03-23T22:19:55;98809.75;;;3.72;100.00
64292;BME280;50628;51.008;13.658;2024-03-23T22:25:00;98811.28;;;3.74;100.00
64292;BME280;50628;51.008;13.658;2024-03-23T22:30:03;98806.56;;;3.81;100.00
64292;BME280;50628;51.008;13.658;2024-03-23T22:35:05;98809.13;;;3.81;100.00
64292;BME280;50628;51.008;13.658;2024-03-23T22:40:10;98801.94;;;3.60;100.00
64292;BME280;50628;51.008;13.658;2024-03-23T22:45:12;98799.56;;;3.57;100.00
64292;BME280;50628;51.008;13.658;2024-03-23T22:50:14;98805.22;;;3.62;100.00
64292;BME280;50628;51.008;13.658;2024-03-23T22:55:20;98795.13;;;3.59;100.00
64292;BME280;50628;51.008;13.658;2024-03-23T23:00:22;98796.97;;;3.70;100.00
64292;BME280;50628;51.008;13.658;2024-03-23T23:05:25;98799.16;;;3.63;100.00
64292;BME280;50628;51.008;13.658;2024-03-23T23:10:28;98785.88;;;3.57;100.00
64292;BME280;50628;51.008;13.658;2024-03-23T23:15:30;98786.16;;;3.52;100.00
64292;BME280;50628;51.008;13.658;2024-03-23T23:20:32;98786.47;;;3.47;100.00
64292;BME280;50628;51.008;13.658;2024-03-23T23:25:36;98781.13;;;3.38;100.00
64292;BME280;50628;51.008;13.658;2024-03-23T23:30:37;98782.16;;;3.35;100.00
64292;BME280;50628;51.008;13.658;2024-03-23T23:35:39;98783.50;;;3.28;100.00
64292;BME280;50628;51.008;13.658;2024-03-23T23:40:43;98776.47;;;3.17;100.00
64292;BME280;50628;51.008;13.658;2024-03-23T23:45:44;98770.13;;;3.23;100.00
64292;BME280;50628;51.008;13.658;2024-03-23T23:50:46;98764.03;;;3.24;100.00
64292;BME280;50628;51.008;13.658;2024-03-23T23:55:50;98762.91;;;3.15;100.00
